Aérodrome :
LOGIN :

S'inscrire | Disclaimer

   EN    FR    IT 

 










Légende :    VFR   VFR Marginal   IFR   IFR Intensif   IFR Très Intensif
Visi : 
Plafond : 
>= 8 km
>= 3000ft
5 à 8 km
1000 à 3000 ft
1500m à 5 km
500 à 1000 ft
800 à 1500m
200 à 500 ft
< 800m
< 200 ft
Symboles :   Orages  Brouillard  Fortes neiges  Fortes précipitations  Vent > 20 kt
SIGMETs :   Divers  Orages  Givrage  Turbulence  Onde Orograph.  Cendres Volcan.







- Altitude de l'aérodrome : 12 ft
- Code IATA : BCN


LEBL - Barcelone

DERNIER METAR :
  • 251530Z 22010KT 9999 FEW030 14/03 Q1008 NOSIG

METARs EXPIRÉS :
  • 251500Z 22008KT 9999 FEW030 14/04 Q1008 NOSIG
  • 251430Z 21009KT 9999 FEW030 14/04 Q1008 NOSIG
  • 251400Z 21009KT 9999 FEW030 14/04 Q1008 NOSIG
  • 251330Z 21009KT 180V240 9999 FEW030 14/04 Q1008 NOSIG
  • 251300Z 20008KT 170V230 CAVOK 14/02 Q1009 NOSIG

TAF TAF LEBL
Valide du 25 à 12h jusqu'au 26 à 12h UTC


251100Z 2512/2612 20008KT 9999 FEW030 TX15/2512Z TN05/2606Z
BECMG 2518/2520 34008KT
BECMG 2602/2604 08010KT BKN020
TEMPO 2603/2612 08015G25KT
Pas de NOTAMs connus pour ce terrain.
2 SIGMETs publiés pour la FIR Barcelona (LECB) :
 
Turbulence forte
LECB SIGMET 4 VALID 251600/251900 LEVA
LECB BARCELONA FIR/UIR SEV TURB FCST WI N3830 W00130 - N3820 E00330 - N3650 W00010 - N3650 W002 - N3830 W00130 FL200/300 MOV S 10KT NC=
Turbulence forte
LECB SIGMET 3 VALID 251200/251600 LEVA
LECB BARCELONA FIR/UIR SEV TURB FCST WI N3901 W00111 - N3815 E00315 - N3743 E00159 - N3726 W00142 - N3901 W00111 FL200/300 MOV S 10KT NC=



MET'MAP, la Météo Aéronautique d'un coup d'oeil ! - Copyright ORBIFLY Décembre 2007 - Disclaimer

ORBIFLY MET'MAP TEAM :

Programmation & Développement : Alexandra Zaïnal
Conception & Développement : Baudouin d'Aumeries
Co-Programmation & Développement : Marc-Olivier Méhu
Soutien technique & logistique : Manuel Goepfert

Contact : metmap@orbifly.com




SOURCES & CREDITS :

   NOAA